createdAt,value
2023-04-18T00:01:19.099Z,101956.13
2023-04-18T00:03:45.791Z,101967.50
2023-04-18T00:06:13.764Z,101936.47
2023-04-18T00:08:40.349Z,101968.75
2023-04-18T00:11:07.012Z,101957.38
2023-04-18T00:13:33.493Z,101967.06
2023-04-18T00:15:59.889Z,101955.09
2023-04-18T00:18:27.113Z,101957.63
2023-04-18T00:20:54.424Z,101959.53
2023-04-18T00:23:22.254Z,101958.63
2023-04-18T00:25:48.768Z,101956.75
2023-04-18T00:28:15.212Z,101956.09
2023-04-18T00:30:41.753Z,101957.94
2023-04-18T00:33:08.872Z,101956.25
2023-04-18T00:35:35.377Z,101960.78
2023-04-18T00:38:01.772Z,101963.72
2023-04-18T00:40:28.219Z,101963.72
2023-04-18T00:42:54.694Z,101964.72
2023-04-18T00:45:21.126Z,101958.72
2023-04-18T00:47:47.564Z,101962.56
2023-04-18T00:50:15.011Z,101957.69
2023-04-18T00:52:42.218Z,101951.88
2023-04-18T00:55:09.337Z,101934.72
2023-04-18T00:57:36.379Z,101943.13
2023-04-18T01:00:10.348Z,101954.66
2023-04-18T01:02:37.700Z,101899.69
2023-04-18T01:05:04.461Z,101956.63
2023-04-18T01:07:33.358Z,101954.16
2023-04-18T01:10:00.524Z,101955.00
2023-04-18T01:12:26.984Z,101953.47
2023-04-18T01:14:53.607Z,101950.09
2023-04-18T01:17:20.060Z,101953.69
2023-04-18T01:19:46.823Z,101948.56
2023-04-18T01:22:14.636Z,101943.56
2023-04-18T01:24:42.090Z,101907.56
2023-04-18T01:27:12.372Z,101939.75
2023-04-18T01:29:39.121Z,101936.59
2023-04-18T01:32:06.502Z,101938.69
2023-04-18T01:34:32.964Z,101923.63
2023-04-18T01:36:59.584Z,101922.94
2023-04-18T01:39:26.012Z,101920.66
2023-04-18T01:41:52.569Z,101921.69
2023-04-18T01:44:19.031Z,101925.44
2023-04-18T01:46:45.463Z,101917.09
2023-04-18T01:49:11.870Z,101920.72
2023-04-18T01:51:43.063Z,101912.31
2023-04-18T01:54:09.486Z,101905.56
2023-04-18T01:56:35.868Z,101908.16
2023-04-18T01:59:02.384Z,101913.44
2023-04-18T02:01:28.837Z,101910.00
2023-04-18T02:03:55.491Z,101908.44
2023-04-18T02:06:22.125Z,101914.50
2023-04-18T02:08:48.694Z,101902.47
2023-04-18T02:11:15.096Z,101913.72
2023-04-18T02:13:41.733Z,101911.25
2023-04-18T02:16:12.914Z,101916.59
2023-04-18T02:18:40.125Z,101917.69
2023-04-18T02:21:06.729Z,101911.84
2023-04-18T02:23:33.153Z,101913.72
2023-04-18T02:25:59.603Z,101903.59
2023-04-18T02:28:26.032Z,101901.09
2023-04-18T02:30:52.408Z,101910.84
2023-04-18T02:33:18.864Z,101912.03
2023-04-18T02:35:45.240Z,101905.28
2023-04-18T02:38:11.788Z,101899.44
2023-04-18T02:40:38.192Z,101909.94
2023-04-18T02:43:04.643Z,101915.19
2023-04-18T02:45:31.260Z,101914.47
2023-04-18T02:47:57.706Z,101905.13
2023-04-18T02:50:25.073Z,101916.50
2023-04-18T02:52:51.643Z,101909.75
2023-04-18T02:55:18.226Z,101908.19
2023-04-18T02:57:44.654Z,101913.50
2023-04-18T03:00:11.849Z,101906.78
2023-04-18T03:02:38.348Z,101915.69
2023-04-18T03:05:05.945Z,101888.53
2023-04-18T03:07:32.557Z,101904.56
2023-04-18T03:09:59.868Z,101906.44
2023-04-18T03:12:26.344Z,101880.50
2023-04-18T03:14:52.764Z,101917.97
2023-04-18T03:17:19.385Z,101907.75
2023-04-18T03:19:46.522Z,101913.00
2023-04-18T03:22:14.149Z,101918.28
2023-04-18T03:24:40.850Z,101921.84
2023-04-18T03:27:07.319Z,101915.09
2023-04-18T03:29:34.001Z,101914.44
2023-04-18T03:32:00.429Z,101913.00
2023-04-18T03:34:27.044Z,101914.09
2023-04-18T03:36:54.095Z,101918.44
2023-04-18T03:39:20.555Z,101919.50
2023-04-18T03:41:46.982Z,101918.69
2023-04-18T03:44:13.520Z,101917.91
2023-04-18T03:46:40.706Z,101918.97
2023-04-18T03:49:07.172Z,101921.47
2023-04-18T03:51:42.070Z,101876.88
2023-04-18T03:54:08.577Z,101904.75
2023-04-18T03:56:35.689Z,101917.66
2023-04-18T03:59:02.057Z,101918.66
2023-04-18T04:01:28.517Z,101918.81
2023-04-18T04:03:55.058Z,101923.94
2023-04-18T04:06:21.719Z,101927.50
2023-04-18T04:08:48.173Z,101922.31
2023-04-18T04:11:14.560Z,101922.34
2023-04-18T04:13:40.970Z,101920.66
2023-04-18T04:16:07.867Z,101928.47
2023-04-18T04:18:34.373Z,101919.94
2023-04-18T04:21:00.985Z,101926.09
2023-04-18T04:23:27.615Z,101915.44
2023-04-18T04:25:54.914Z,101927.19
2023-04-18T04:28:22.933Z,101938.41
2023-04-18T04:30:50.815Z,101952.94
2023-04-18T04:33:20.925Z,101942.66
2023-04-18T04:35:47.939Z,101954.09
2023-04-18T04:38:15.284Z,101939.38
2023-04-18T04:40:42.368Z,101947.19
2023-04-18T04:43:12.490Z,101944.78
2023-04-18T04:45:42.020Z,101949.97
2023-04-18T04:48:09.492Z,101955.97
2023-04-18T04:50:37.325Z,101914.50
2023-04-18T04:53:07.344Z,101956.00
2023-04-18T04:55:34.493Z,101955.06
2023-04-18T04:58:01.016Z,101968.06
2023-04-18T05:00:28.798Z,101957.03
2023-04-18T05:02:56.255Z,101969.91
2023-04-18T05:05:23.303Z,101970.63
2023-04-18T05:07:49.733Z,101961.94
2023-04-18T05:10:16.221Z,101962.88
2023-04-18T05:12:42.749Z,101975.69
2023-04-18T05:15:09.551Z,101981.81
2023-04-18T05:17:36.014Z,101976.53
2023-04-18T05:20:02.420Z,101984.41
2023-04-18T05:22:28.824Z,101986.84
2023-04-18T05:24:55.288Z,101990.94
2023-04-18T05:27:21.907Z,101986.44
2023-04-18T05:29:50.147Z,101991.63
2023-04-18T05:32:16.705Z,101994.81
2023-04-18T05:34:43.270Z,101997.31
2023-04-18T05:37:09.830Z,101997.31
2023-04-18T05:39:36.427Z,101998.72
2023-04-18T05:42:03.273Z,102000.38
2023-04-18T05:44:29.958Z,102008.69
2023-04-18T05:46:56.365Z,102016.31
2023-04-18T05:49:25.296Z,101969.59
2023-04-18T05:51:52.763Z,102010.88
2023-04-18T05:54:21.495Z,102016.66
2023-04-18T05:56:48.235Z,102009.66
2023-04-18T05:59:14.633Z,102011.25
2023-04-18T06:01:41.038Z,102022.28
2023-04-18T06:04:08.584Z,102022.84
2023-04-18T06:06:35.896Z,102020.16
2023-04-18T06:09:02.377Z,102017.44
2023-04-18T06:11:28.872Z,102028.47
2023-04-18T06:13:56.042Z,102036.00
2023-04-18T06:16:22.596Z,102038.31
2023-04-18T06:18:49.026Z,102035.50
2023-04-18T06:21:15.581Z,102031.16
2023-04-18T06:23:41.993Z,102036.03
2023-04-18T06:26:09.193Z,102037.47
2023-04-18T06:28:35.853Z,102047.59
2023-04-18T06:31:02.578Z,102023.75
2023-04-18T06:33:29.042Z,102042.28
2023-04-18T06:35:55.752Z,102041.88
2023-04-18T06:38:22.206Z,102044.88
2023-04-18T06:40:48.612Z,102037.44
2023-04-18T06:43:15.045Z,102038.19
2023-04-18T06:45:41.633Z,102045.28
2023-04-18T06:48:09.127Z,102043.72
2023-04-18T06:50:35.780Z,102043.81
2023-04-18T06:53:02.264Z,102046.09
2023-04-18T06:55:28.745Z,102049.75
2023-04-18T06:57:55.402Z,102039.16
2023-04-18T07:00:22.158Z,102047.75
2023-04-18T07:02:48.903Z,102043.44
2023-04-18T07:05:15.513Z,102045.31
2023-04-18T07:07:41.909Z,102041.63
2023-04-18T07:10:09.788Z,102045.59
2023-04-18T07:12:36.336Z,102046.91
2023-04-18T07:15:03.795Z,102044.94
2023-04-18T07:17:30.394Z,102048.41
2023-04-18T07:19:56.836Z,102053.97
2023-04-18T07:22:23.257Z,102059.03
2023-04-18T07:24:49.674Z,102047.78
2023-04-18T07:27:16.150Z,102024.16
2023-04-18T07:29:42.572Z,102050.47
2023-04-18T07:32:10.853Z,102048.47
2023-04-18T07:34:37.492Z,102044.19
2023-04-18T07:37:04.051Z,102037.28
2023-04-18T07:39:35.713Z,102046.31
2023-04-18T07:42:04.088Z,102045.69
2023-04-18T07:44:30.646Z,102046.63
2023-04-18T07:46:57.137Z,102015.56
2023-04-18T07:49:23.544Z,102043.25
2023-04-18T07:51:49.960Z,102043.88
2023-04-18T07:54:16.830Z,102032.56
2023-04-18T07:56:43.357Z,102046.91
2023-04-18T07:59:09.819Z,102039.88
2023-04-18T08:01:36.225Z,102043.53
2023-04-18T08:04:02.771Z,102043.94
2023-04-18T08:06:29.425Z,102039.59
2023-04-18T08:08:55.893Z,102049.03
2023-04-18T08:11:22.302Z,102035.03
2023-04-18T08:13:48.726Z,102056.38
2023-04-18T08:16:17.366Z,102047.25
2023-04-18T08:18:44.174Z,102046.97
2023-04-18T08:21:10.694Z,102011.38
2023-04-18T08:23:37.132Z,102033.28
2023-04-18T08:26:03.552Z,102056.13
2023-04-18T08:28:30.041Z,102047.72
2023-04-18T08:30:56.659Z,102061.94
2023-04-18T08:33:24.029Z,102056.00
2023-04-18T08:35:53.206Z,102055.78
2023-04-18T08:38:19.732Z,102064.63
2023-04-18T08:40:46.489Z,102057.31
2023-04-18T08:43:14.852Z,102021.19
2023-04-18T08:45:44.985Z,102026.69
2023-04-18T08:48:13.799Z,102059.75
2023-04-18T08:50:41.494Z,102060.06
2023-04-18T08:53:08.477Z,102052.94
2023-04-18T08:55:35.615Z,102058.88
2023-04-18T08:58:03.202Z,102031.84
2023-04-18T09:00:30.482Z,102068.59
2023-04-18T09:02:57.604Z,102052.50
2023-04-18T09:05:26.893Z,102030.69
2023-04-18T09:07:54.648Z,102070.69
2023-04-18T09:10:33.363Z,102070.00
2023-04-18T09:13:03.284Z,102058.53
2023-04-18T09:15:30.439Z,102061.66
2023-04-18T09:18:02.752Z,102066.91
2023-04-18T09:20:35.772Z,102069.41
2023-04-18T09:23:04.271Z,102062.53
2023-04-18T09:25:51.288Z,102054.41
2023-04-18T09:28:29.670Z,102059.81
2023-04-18T09:30:58.497Z,102063.94
2023-04-18T09:33:32.957Z,102066.25
2023-04-18T09:36:23.782Z,102063.97
2023-04-18T09:38:55.371Z,102047.13
2023-04-18T09:41:23.137Z,102068.56
2023-04-18T09:43:49.614Z,102052.63
2023-04-18T09:46:17.657Z,102052.53
2023-04-18T09:48:44.276Z,102022.78
2023-04-18T09:51:15.711Z,102058.81
2023-04-18T09:53:47.648Z,102057.50
2023-04-18T09:56:27.476Z,102021.19
2023-04-18T09:59:03.555Z,102062.72
2023-04-18T10:01:30.784Z,102059.06
2023-04-18T10:03:57.827Z,102053.72
2023-04-18T10:06:27.294Z,102042.97
2023-04-18T10:08:55.030Z,102057.41
2023-04-18T10:11:23.596Z,102055.44
2023-04-18T10:13:53.560Z,102063.38
2023-04-18T10:16:20.720Z,102059.84
2023-04-18T10:18:49.654Z,102061.16
2023-04-18T10:21:16.430Z,102052.09
2023-04-18T10:23:43.055Z,102036.56
2023-04-18T10:26:11.115Z,102049.94
2023-04-18T10:28:57.233Z,102054.22
2023-04-18T10:31:25.961Z,102057.03
2023-04-18T10:34:05.700Z,102050.09
2023-04-18T10:52:43.737Z,102047.22
2023-04-18T10:55:15.763Z,102038.44
2023-04-18T10:57:44.913Z,102039.72
2023-04-18T11:00:13.889Z,102040.84
2023-04-18T11:02:47.610Z,102043.06
2023-04-18T11:05:19.420Z,102026.34
2023-04-18T11:07:46.576Z,102032.94
2023-04-18T11:10:16.143Z,102036.00
2023-04-18T11:12:42.785Z,102034.00
2023-04-18T11:15:11.676Z,102036.94
2023-04-18T11:17:40.119Z,102012.59
2023-04-18T11:20:09.237Z,102034.28
2023-04-18T11:22:49.796Z,102005.41
2023-04-18T11:25:17.367Z,102030.94
2023-04-18T11:27:45.223Z,102031.16
2023-04-18T11:30:13.106Z,102025.81
2023-04-18T11:32:41.417Z,102023.31
2023-04-18T11:35:12.936Z,102025.09
2023-04-18T11:37:40.688Z,102018.69
2023-04-18T11:40:10.150Z,101994.94
2023-04-18T11:42:39.017Z,102020.03
2023-04-18T11:45:13.050Z,102018.81
2023-04-18T11:47:41.954Z,102028.50
2023-04-18T11:50:10.996Z,102013.88
2023-04-18T11:52:39.018Z,102005.56
2023-04-18T11:55:18.415Z,102026.28
2023-04-18T11:57:57.794Z,102023.53
2023-04-18T12:00:39.508Z,102021.44
2023-04-18T12:03:11.807Z,102017.22
2023-04-18T12:05:40.091Z,102019.84
2023-04-18T12:08:11.540Z,102009.88
2023-04-18T12:10:45.262Z,102010.78
2023-04-18T12:13:11.822Z,102016.09
2023-04-18T12:15:40.754Z,101995.69
2023-04-18T12:18:10.078Z,101999.31
2023-04-18T12:20:52.314Z,102002.50
2023-04-18T12:23:38.309Z,101998.13
2023-04-18T12:26:07.225Z,102007.97
2023-04-18T12:28:35.546Z,101998.44
2023-04-18T12:31:05.346Z,101995.44
2023-04-18T12:33:31.842Z,102004.47
2023-04-18T12:35:58.899Z,101992.66
2023-04-18T12:38:25.636Z,101993.25
2023-04-18T12:40:52.467Z,102003.88
2023-04-18T12:43:19.687Z,102006.25
2023-04-18T12:45:47.334Z,101994.97
2023-04-18T12:48:13.860Z,102002.00
2023-04-18T12:50:40.437Z,101996.03
2023-04-18T12:53:06.915Z,101989.88
2023-04-18T12:55:33.495Z,101991.16
2023-04-18T12:57:59.968Z,101968.06
2023-04-18T13:00:29.246Z,101981.41
2023-04-18T13:02:56.353Z,101999.00
2023-04-18T13:05:27.318Z,101968.34
2023-04-18T13:08:08.498Z,101993.69
2023-04-18T13:10:41.591Z,101960.31
2023-04-18T13:13:08.003Z,101991.69
2023-04-18T13:15:34.451Z,102000.47
2023-04-18T13:18:05.086Z,101993.50
2023-04-18T13:20:32.124Z,101986.38
2023-04-18T13:22:58.562Z,101993.03
2023-04-18T13:25:25.936Z,101988.25
2023-04-18T13:27:52.435Z,101999.84
2023-04-18T13:30:19.109Z,101986.50
2023-04-18T13:32:46.240Z,101980.91
2023-04-18T13:35:12.792Z,101983.31
2023-04-18T13:37:39.553Z,101982.47
2023-04-18T13:40:06.925Z,101974.66
2023-04-18T13:42:34.032Z,101985.09
2023-04-18T13:45:00.477Z,101984.47
2023-04-18T13:47:27.220Z,101989.59
2023-04-18T13:49:53.803Z,101980.53
2023-04-18T13:52:20.375Z,101968.38
2023-04-18T13:54:47.056Z,101974.97
2023-04-18T13:57:14.620Z,101976.94
2023-04-18T13:59:41.344Z,101970.72
2023-04-18T14:02:08.870Z,101965.19
2023-04-18T14:04:36.201Z,101969.53
2023-04-18T14:07:03.743Z,101966.69
2023-04-18T14:09:30.279Z,101970.09
2023-04-18T14:11:58.205Z,101959.56
2023-04-18T14:14:24.708Z,101957.22
2023-04-18T14:16:51.224Z,101905.84
2023-04-18T14:19:17.895Z,101954.03
2023-04-18T14:21:44.350Z,101956.25
2023-04-18T14:24:11.976Z,101945.28
2023-04-18T14:26:38.401Z,101954.59
2023-04-18T14:29:05.105Z,101949.47
2023-04-18T14:31:31.587Z,101946.56
2023-04-18T14:33:58.070Z,101943.81
2023-04-18T14:36:24.553Z,101954.13
2023-04-18T14:38:50.985Z,101955.91
2023-04-18T14:41:17.446Z,101944.41
2023-04-18T14:43:43.925Z,101955.44
2023-04-18T14:46:16.445Z,101952.34
2023-04-18T14:48:46.267Z,101916.94
2023-04-18T14:51:12.939Z,101932.47
2023-04-18T14:53:39.347Z,101925.19
2023-04-18T14:56:06.057Z,101925.28
2023-04-18T14:58:32.471Z,101944.78
2023-04-18T15:00:59.012Z,101931.16
2023-04-18T15:03:25.575Z,101939.66
2023-04-18T15:05:53.136Z,101939.16
2023-04-18T15:08:19.662Z,101945.34
2023-04-18T15:10:47.512Z,101927.66
2023-04-18T15:13:13.963Z,101940.13
2023-04-18T15:15:40.531Z,101937.75
2023-04-18T15:18:08.309Z,101945.72
2023-04-18T15:20:36.988Z,101945.25
2023-04-18T15:23:03.679Z,101947.78
2023-04-18T15:25:30.990Z,101938.19
2023-04-18T15:27:58.376Z,101940.59
2023-04-18T15:30:25.426Z,101897.28
2023-04-18T15:32:52.163Z,101924.53
2023-04-18T15:35:18.874Z,101928.34
2023-04-18T15:37:45.375Z,101931.38
2023-04-18T15:40:16.081Z,101929.22
2023-04-18T15:42:43.605Z,101918.34
2023-04-18T15:45:10.933Z,101935.94
2023-04-18T15:47:38.732Z,101919.66
2023-04-18T15:50:06.139Z,101923.09
2023-04-18T15:52:32.653Z,101923.69
2023-04-18T15:54:59.223Z,101929.22
2023-04-18T15:57:25.688Z,101931.22
2023-04-18T15:59:52.214Z,101934.34
2023-04-18T16:02:18.675Z,101932.91
2023-04-18T16:04:45.481Z,101924.41
2023-04-18T16:07:12.122Z,101931.84
2023-04-18T16:09:38.546Z,101936.34
2023-04-18T16:12:05.805Z,101917.72
2023-04-18T16:14:33.398Z,101923.25
2023-04-18T16:16:59.933Z,101928.63
2023-04-18T16:19:26.445Z,101913.53
2023-04-18T16:21:52.925Z,101929.69
2023-04-18T16:24:19.525Z,101917.75
2023-04-18T16:26:46.012Z,101927.03
2023-04-18T16:29:12.404Z,101927.41
2023-04-18T16:31:38.962Z,101926.53
2023-04-18T16:34:05.388Z,101935.75
2023-04-18T16:36:34.412Z,101910.84
2023-04-18T16:39:00.870Z,101929.56
2023-04-18T16:41:27.617Z,101930.81
2023-04-18T16:43:54.045Z,101930.69
2023-04-18T16:46:20.626Z,101934.13
2023-04-18T16:48:47.189Z,101934.59
2023-04-18T16:51:16.688Z,101935.31
2023-04-18T16:53:44.488Z,101930.56
2023-04-18T16:56:10.952Z,101947.06
2023-04-18T16:58:37.340Z,101936.06
2023-04-18T17:01:03.824Z,101938.09
2023-04-18T17:03:30.624Z,101931.84
2023-04-18T17:05:57.311Z,101938.81
2023-04-18T17:08:25.745Z,101913.63
2023-04-18T17:10:52.868Z,101936.59
2023-04-18T17:13:19.566Z,101939.81
2023-04-18T17:15:46.227Z,101936.41
2023-04-18T17:18:12.772Z,101937.31
2023-04-18T17:20:39.322Z,101936.59
2023-04-18T17:23:05.932Z,101934.69
2023-04-18T17:25:32.389Z,101944.47
2023-04-18T17:28:02.024Z,101943.31
2023-04-18T17:30:29.044Z,101947.81
2023-04-18T17:32:55.975Z,101938.41
2023-04-18T17:35:22.728Z,101955.41
2023-04-18T17:37:50.076Z,101944.94
2023-04-18T17:40:16.674Z,101938.13
2023-04-18T17:42:43.244Z,101934.38
2023-04-18T17:45:10.054Z,101943.94
2023-04-18T17:47:36.812Z,101949.09
2023-04-18T17:50:07.051Z,101946.81
2023-04-18T17:52:33.455Z,101947.13
2023-04-18T17:55:01.534Z,101906.13
2023-04-18T17:57:30.356Z,101932.66
2023-04-18T17:59:56.925Z,101937.41
2023-04-18T18:02:23.615Z,101955.69
2023-04-18T18:04:50.365Z,101955.69
2023-04-18T18:07:16.935Z,101952.31
2023-04-18T18:09:43.430Z,101955.38
2023-04-18T18:12:09.995Z,101949.41
2023-04-18T18:14:36.533Z,101932.78
2023-04-18T18:17:05.527Z,101939.06
2023-04-18T18:19:32.091Z,101948.84
2023-04-18T18:21:58.541Z,101956.69
2023-04-18T18:24:26.763Z,101969.06
2023-04-18T18:26:53.335Z,101962.25
2023-04-18T18:29:19.891Z,101959.50
2023-04-18T18:31:46.415Z,101973.97
2023-04-18T18:34:12.916Z,101976.09
2023-04-18T18:36:40.119Z,101951.75
2023-04-18T18:39:06.867Z,101971.88
2023-04-18T18:41:33.465Z,101969.47
2023-04-18T18:44:00.196Z,101981.00
2023-04-18T18:46:27.659Z,101974.28
2023-04-18T18:48:54.140Z,101979.47
2023-04-18T18:51:20.560Z,101984.28
2023-04-18T18:53:47.034Z,101994.25
2023-04-18T18:56:13.508Z,101996.22
2023-04-18T18:58:40.405Z,101995.38
2023-04-18T19:01:07.209Z,101988.75
2023-04-18T19:03:34.678Z,102001.97
2023-04-18T19:06:03.788Z,101995.97
2023-04-18T19:08:30.829Z,101985.34
2023-04-18T19:10:58.148Z,102005.56
2023-04-18T19:13:25.085Z,102002.38
2023-04-18T19:15:52.063Z,102006.88
2023-04-18T19:18:21.802Z,102008.63
2023-04-18T19:20:49.936Z,102008.09
2023-04-18T19:25:59.815Z,102015.84
2023-04-18T19:28:26.555Z,102014.75
2023-04-18T19:30:53.106Z,102013.28
2023-04-18T19:33:20.467Z,102021.41
2023-04-18T19:35:46.869Z,102012.25
2023-04-18T19:38:13.286Z,102018.06
2023-04-18T19:40:39.691Z,102020.97
2023-04-18T19:43:06.123Z,102025.72
2023-04-18T19:45:32.690Z,102023.00
2023-04-18T19:47:59.298Z,102018.34
2023-04-18T19:50:25.874Z,102017.53
2023-04-18T19:52:52.272Z,102025.84
2023-04-18T19:55:18.680Z,102035.84
2023-04-18T19:57:45.230Z,102032.38
2023-04-18T20:00:13.456Z,102043.97
2023-04-18T20:02:41.018Z,102015.16
2023-04-18T20:05:09.186Z,102043.31
2023-04-18T20:07:35.977Z,102039.25
2023-04-18T20:10:02.443Z,102037.41
2023-04-18T20:12:28.911Z,102042.06
2023-04-18T20:14:55.882Z,102045.34
2023-04-18T20:17:22.491Z,102046.00
2023-04-18T20:19:49.695Z,102044.31
2023-04-18T20:22:16.888Z,102041.72
2023-04-18T20:24:45.002Z,102041.72
2023-04-18T20:27:12.243Z,102047.03
2023-04-18T20:29:38.763Z,102040.19
2023-04-18T20:32:05.741Z,102044.69
2023-04-18T20:34:32.529Z,102059.16
2023-04-18T20:36:59.976Z,102052.19
2023-04-18T20:39:26.849Z,102052.19
2023-04-18T20:42:14.137Z,102044.72
2023-04-18T20:44:42.927Z,102056.38
2023-04-18T20:47:09.331Z,102059.00
2023-04-18T20:49:36.070Z,102051.81
2023-04-18T20:52:02.466Z,102052.72
2023-04-18T20:54:28.861Z,102056.84
2023-04-18T20:56:55.350Z,102060.94
2023-04-18T20:59:25.373Z,101993.75
2023-04-18T21:01:51.790Z,102057.59
2023-04-18T21:04:18.466Z,102066.38
2023-04-18T21:06:45.498Z,102062.81
2023-04-18T21:09:11.914Z,102069.75
2023-04-18T21:11:38.349Z,102063.97
2023-04-18T21:14:06.606Z,102064.97
2023-04-18T21:16:33.419Z,102047.28
2023-04-18T21:19:00.019Z,102065.63
2023-04-18T21:21:27.182Z,102066.38
2023-04-18T21:23:53.579Z,102077.03
2023-04-18T21:26:20.131Z,102064.91
2023-04-18T21:29:00.393Z,102064.25
2023-04-18T21:31:29.450Z,102069.19
2023-04-18T21:33:57.889Z,102067.69
2023-04-18T21:36:26.851Z,102069.56
2023-04-18T21:38:58.011Z,102071.31
2023-04-18T21:41:25.454Z,102066.09
2023-04-18T21:43:52.193Z,102068.88
2023-04-18T21:46:19.446Z,102070.50
2023-04-18T21:48:46.992Z,102076.75
2023-04-18T21:51:15.727Z,102067.28
2023-04-18T21:53:42.703Z,102074.13
2023-04-18T21:56:09.721Z,102075.25
2023-04-18T21:58:36.366Z,102067.28
2023-04-18T22:01:03.236Z,102068.16
2023-04-18T22:03:30.059Z,102049.44
2023-04-18T22:05:57.478Z,102070.09
2023-04-18T22:08:25.712Z,102065.69
2023-04-18T22:10:56.387Z,102066.75
2023-04-18T22:13:22.789Z,102070.28
2023-04-18T22:15:51.342Z,102078.03
2023-04-18T22:18:18.811Z,102068.50
2023-04-18T22:20:46.822Z,102067.69
2023-04-18T22:23:13.732Z,102072.78
2023-04-18T22:25:40.530Z,102053.63
2023-04-18T22:28:07.124Z,102057.19
2023-04-18T22:30:33.688Z,102052.22
2023-04-18T22:33:00.307Z,102079.03
2023-04-18T22:35:27.101Z,102057.72
2023-04-18T22:37:53.547Z,102071.31
2023-04-18T22:40:20.067Z,102074.09
2023-04-18T22:42:46.462Z,102062.81
2023-04-18T22:45:13.627Z,102076.53
2023-04-18T22:47:40.350Z,102078.97
2023-04-18T22:50:07.818Z,102071.56
2023-04-18T22:55:17.040Z,102069.72
2023-04-18T22:57:43.721Z,102075.94
2023-04-18T23:00:11.718Z,102077.63
2023-04-18T23:02:38.397Z,102076.97
2023-04-18T23:05:07.310Z,102077.16
2023-04-18T23:07:41.333Z,102075.56
2023-04-18T23:12:49.967Z,102071.25
2023-04-18T23:15:16.372Z,102060.47
2023-04-18T23:17:42.917Z,102066.03
2023-04-18T23:20:10.754Z,102071.44
2023-04-18T23:22:38.682Z,102078.03
2023-04-18T23:25:05.552Z,102070.13
2023-04-18T23:27:32.067Z,102066.31
2023-04-18T23:29:58.630Z,102073.22
2023-04-18T23:32:25.165Z,102077.50
2023-04-18T23:34:51.609Z,102072.66
2023-04-18T23:37:17.987Z,102077.03
2023-04-18T23:39:44.371Z,102071.81
2023-04-18T23:42:10.836Z,102068.44
2023-04-18T23:44:37.274Z,102075.34
2023-04-18T23:47:03.774Z,102077.22
2023-04-18T23:49:30.207Z,102071.81
2023-04-18T23:51:56.626Z,102073.56
2023-04-18T23:54:23.047Z,102071.06
2023-04-18T23:56:49.707Z,102072.81
2023-04-18T23:59:16.228Z,102036.94
